createdAt,value
2018-05-29T00:01:14.317Z,95657.84
2018-05-29T00:03:40.312Z,95659.23
2018-05-29T00:06:06.283Z,95656.83
2018-05-29T00:08:32.279Z,95654.67
2018-05-29T00:10:58.268Z,95650.92
2018-05-29T00:13:24.260Z,95654.67
2018-05-29T00:15:50.244Z,95651.30
2018-05-29T00:18:16.233Z,95644.80
2018-05-29T00:20:42.216Z,95644.22
2018-05-29T00:23:08.198Z,95644.39
2018-05-29T00:25:34.190Z,95648.53
2018-05-29T00:28:00.185Z,95642.22
2018-05-29T00:30:26.163Z,95644.02
2018-05-29T00:32:52.142Z,95649.14
2018-05-29T00:35:18.126Z,95646.38
2018-05-29T00:37:44.098Z,95647.34
2018-05-29T00:40:10.112Z,95645.56
2018-05-29T00:42:36.091Z,95645.16
2018-05-29T00:45:02.075Z,95642.80
2018-05-29T00:47:28.067Z,95645.16
2018-05-29T00:49:54.040Z,95639.63
2018-05-29T00:52:20.035Z,95639.63
2018-05-29T00:54:46.018Z,95637.43
2018-05-29T00:57:12.016Z,95636.45
2018-05-29T00:59:38.006Z,95635.88
2018-05-29T01:02:03.985Z,95630.52
2018-05-29T01:04:30.030Z,95630.14
2018-05-29T01:06:56.018Z,95626.37
2018-05-29T01:09:22.005Z,95626.97
2018-05-29T01:11:47.988Z,95624.20
2018-05-29T01:14:13.963Z,95619.66
2018-05-29T01:16:39.951Z,95620.46
2018-05-29T01:19:06.013Z,95620.46
2018-05-29T01:21:32.004Z,95622.82
2018-05-29T01:23:57.982Z,95619.08
2018-05-29T01:26:23.982Z,95624.20
2018-05-29T01:28:50.050Z,95614.12
2018-05-29T01:31:16.044Z,95622.42
2018-05-29T01:33:42.038Z,95621.44
2018-05-29T01:36:08.050Z,95613.71
2018-05-29T01:38:34.017Z,95620.05
2018-05-29T01:41:00.004Z,95619.81
2018-05-29T01:43:25.991Z,95611.52
2018-05-29T01:45:51.978Z,95615.27
2018-05-29T01:48:17.954Z,95618.03
2018-05-29T01:50:43.936Z,95624.38
2018-05-29T01:53:09.920Z,95621.20
2018-05-29T01:55:35.913Z,95625.75
2018-05-29T01:58:01.900Z,95622.58
2018-05-29T02:00:27.877Z,95623.97
2018-05-29T02:02:53.863Z,95625.34
2018-05-29T02:05:19.850Z,95626.33
2018-05-29T02:07:45.856Z,95628.72
2018-05-29T02:10:11.834Z,95632.27
2018-05-29T02:12:37.820Z,95630.88
2018-05-29T02:15:03.805Z,95626.16
2018-05-29T02:17:29.803Z,95620.22
2018-05-29T02:19:55.785Z,95623.19
2018-05-29T02:22:21.783Z,95625.95
2018-05-29T02:24:47.772Z,95631.48
2018-05-29T02:27:13.760Z,95633.24
2018-05-29T02:29:39.753Z,95636.61
2018-05-29T02:32:05.749Z,95635.63
2018-05-29T15:39:04.609Z,95395.23
2018-05-29T15:41:30.595Z,95398.23
2018-05-29T15:43:56.625Z,95396.28
2018-05-29T15:46:22.632Z,95394.32
2018-05-29T15:48:48.651Z,95389.39
2018-05-29T15:51:14.647Z,95393.14
2018-05-29T15:53:40.636Z,95392.97
2018-05-29T15:56:06.614Z,95390.37
2018-05-29T15:58:33.520Z,95391.58
2018-05-29T16:00:59.506Z,95391.98
2018-05-29T16:03:25.498Z,95385.47
2018-05-29T16:05:51.482Z,95391.98
2018-05-29T16:08:17.462Z,95382.10
2018-05-29T16:10:43.454Z,95385.67
2018-05-29T16:13:09.446Z,95380.14
2018-05-29T16:15:35.429Z,95391.21
2018-05-29T16:18:01.413Z,95388.84
2018-05-29T16:20:27.420Z,95391.78
2018-05-29T16:22:53.402Z,95399.52
2018-05-29T16:25:19.475Z,95406.84
2018-05-29T16:27:45.413Z,95395.77
2018-05-29T16:30:11.405Z,95396.17
2018-05-29T16:32:37.402Z,95389.86
2018-05-29T16:35:03.380Z,95394.98
2018-05-29T16:37:29.396Z,95387.84
2018-05-29T16:39:55.385Z,95394.35
2018-05-29T16:42:21.407Z,95392.13
2018-05-29T16:44:47.369Z,95394.69
2018-05-29T16:47:13.364Z,95388.52
2018-05-29T16:49:39.368Z,95386.73
2018-05-29T16:52:05.399Z,95390.66
2018-05-29T16:54:31.379Z,95391.83
2018-05-29T16:56:57.460Z,95384.68
2018-05-29T16:59:23.458Z,95394.77
2018-05-29T17:01:49.450Z,95390.85
2018-05-29T17:04:15.445Z,95391.22
2018-05-29T17:06:41.464Z,95396.76
2018-05-29T17:09:07.478Z,95393.22
2018-05-29T17:11:33.877Z,95398.75
2018-05-29T17:14:00.481Z,95402.70
2018-05-29T17:16:29.009Z,95395.58
2018-05-29T17:18:55.251Z,95399.33
2018-05-29T17:21:21.779Z,95394.77
2018-05-29T17:23:48.254Z,95397.36
2018-05-29T17:26:14.865Z,95401.28
2018-05-29T17:28:43.978Z,95396.96
2018-05-29T17:31:10.654Z,95395.75
2018-05-29T17:33:37.062Z,95400.30
2018-05-29T17:36:03.176Z,95400.88
2018-05-29T17:38:29.799Z,95401.08
2018-05-29T17:40:56.618Z,95398.69
2018-05-29T17:43:22.739Z,95404.42
2018-05-29T17:45:48.938Z,95409.95
2018-05-29T17:48:15.268Z,95405.80
2018-05-29T17:50:41.426Z,95405.98
2018-05-29T17:53:07.885Z,95409.17
2018-05-29T17:55:34.313Z,95412.75
2018-05-29T17:58:00.375Z,95417.52
2018-05-29T18:00:26.405Z,95418.32
2018-05-29T18:02:52.469Z,95427.83
2018-05-29T18:05:18.470Z,95421.69
2018-05-29T18:07:44.471Z,95427.02
2018-05-29T18:10:10.512Z,95427.02
2018-05-29T18:12:36.552Z,95429.99
2018-05-29T18:15:02.601Z,95429.79
2018-05-29T18:17:28.706Z,95437.28
2018-05-29T18:19:54.750Z,95440.05
2018-05-29T18:22:20.933Z,95439.27
2018-05-29T18:24:56.413Z,95438.06
2018-05-29T18:27:22.449Z,95449.70
2018-05-29T18:29:48.439Z,95442.17
2018-05-29T18:32:14.480Z,95442.98
2018-05-29T18:34:40.454Z,95454.05
2018-05-29T18:37:06.455Z,95450.64
2018-05-29T18:39:32.467Z,95454.19
2018-05-29T18:41:58.481Z,95457.73
2018-05-29T18:44:24.647Z,95466.23
2018-05-29T18:46:50.604Z,95473.15
2018-05-29T18:49:16.626Z,95472.17
2018-05-29T18:51:42.682Z,95474.13
2018-05-29T18:54:08.735Z,95475.58
2018-05-29T18:56:34.884Z,95475.98
2018-05-29T18:59:00.917Z,95480.74
2018-05-29T19:01:26.919Z,95478.95
2018-05-29T19:03:52.904Z,95484.48
2018-05-29T19:06:18.975Z,95486.27
2018-05-29T19:08:44.987Z,95491.20
2018-05-29T19:11:10.992Z,95488.64
2018-05-29T19:13:36.972Z,95492.38
2018-05-29T19:16:02.977Z,95490.59
2018-05-29T19:18:29.004Z,95490.59
2018-05-29T19:20:55.005Z,95493.77
2018-05-29T19:23:21.096Z,95496.53
2018-05-29T19:25:47.072Z,95497.68
2018-05-29T19:28:13.061Z,95502.81
2018-05-29T19:30:39.060Z,95503.98
2018-05-29T19:33:05.092Z,95502.40
2018-05-29T19:35:31.086Z,95502.00
2018-05-29T19:37:57.093Z,95508.11
2018-05-29T19:40:23.141Z,95505.91
2018-05-29T19:42:49.159Z,95501.56
2018-05-29T19:45:15.151Z,95513.59
2018-05-29T19:47:41.221Z,95510.83
2018-05-29T19:50:07.236Z,95512.39
2018-05-29T19:52:33.223Z,95503.31
2018-05-29T19:54:59.267Z,95514.98
2018-05-29T19:57:25.335Z,95512.05
2018-05-29T19:59:51.377Z,95516.98
2018-05-29T20:02:17.329Z,95514.20
2018-05-29T20:04:43.315Z,95514.84
2018-05-29T20:07:09.347Z,95515.22
2018-05-29T20:09:35.355Z,95513.47
2018-05-29T20:12:01.373Z,95517.82
2018-05-29T20:14:27.368Z,95519.00
2018-05-29T20:16:53.379Z,95512.86
2018-05-29T20:19:19.390Z,95518.39
2018-05-29T20:21:45.375Z,95511.88
2018-05-29T20:24:11.367Z,95511.71
2018-05-29T20:26:37.338Z,95512.13
2018-05-29T20:29:03.356Z,95511.11
2018-05-29T20:31:29.388Z,95510.33
2018-05-29T20:33:55.411Z,95509.73
2018-05-29T20:36:21.386Z,95503.05
2018-05-29T20:38:47.372Z,95509.97
2018-05-29T20:41:13.403Z,95513.09
2018-05-29T20:43:39.412Z,95512.13
2018-05-29T20:46:05.397Z,95513.70
2018-05-29T20:48:31.447Z,95516.47
2018-05-29T20:50:57.472Z,95514.11
2018-05-29T20:53:23.489Z,95509.80
2018-05-29T20:55:49.485Z,95508.41
2018-05-29T20:58:15.469Z,95510.37
2018-05-29T21:00:41.459Z,95511.92
2018-05-29T21:03:07.471Z,95507.97
2018-05-29T21:05:33.425Z,95502.61
2018-05-29T21:07:59.444Z,95501.39
2018-05-29T21:10:25.493Z,95504.36
2018-05-29T21:12:51.470Z,95494.44
2018-05-29T21:15:17.457Z,95498.38
2018-05-29T21:17:43.442Z,95496.80
2018-05-29T21:20:09.420Z,95491.84
2018-05-29T21:22:35.443Z,95491.84
2018-05-29T21:25:01.419Z,95496.39
2018-05-29T21:27:27.394Z,95496.97
2018-05-29T21:29:53.387Z,95500.71
2018-05-29T21:32:19.419Z,95495.75
2018-05-29T21:34:45.402Z,95490.83
2018-05-29T21:37:11.388Z,95495.95
2018-05-29T21:39:37.384Z,95488.23
2018-05-29T21:42:03.367Z,95494.73
2018-05-29T21:44:29.357Z,95492.17
2018-05-29T21:46:55.344Z,95487.05
2018-05-29T21:49:21.331Z,95491.56
2018-05-29T21:51:47.303Z,95481.68
2018-05-29T21:54:13.311Z,95485.42
2018-05-29T21:56:39.287Z,95481.27
2018-05-29T21:59:05.303Z,95480.87
2018-05-29T22:01:31.293Z,95482.45
2018-05-29T22:03:57.262Z,95482.63
2018-05-29T22:06:23.252Z,95483.03
2018-05-29T22:08:49.231Z,95484.41
2018-05-29T22:11:15.214Z,95478.07
2018-05-29T22:13:41.194Z,95478.07
2018-05-29T22:16:07.173Z,95473.72
2018-05-29T22:18:33.163Z,95474.13
2018-05-29T22:20:59.152Z,95467.78
2018-05-29T22:23:25.117Z,95470.55
2018-05-29T22:25:51.101Z,95471.72
2018-05-29T22:28:17.080Z,95467.58
2018-05-29T22:30:43.178Z,95461.64
2018-05-29T22:33:09.165Z,95466.36
2018-05-29T22:35:35.143Z,95470.51
2018-05-29T22:38:01.123Z,95465.79
2018-05-29T22:40:27.132Z,95464.17
2018-05-29T22:42:53.112Z,95464.17
2018-05-29T22:45:19.097Z,95457.25
2018-05-29T22:47:45.084Z,95450.91
2018-05-29T22:50:11.076Z,95450.54
2018-05-29T22:52:37.050Z,95449.16
2018-05-29T22:55:03.037Z,95450.13
2018-05-29T22:57:29.018Z,95444.20
2018-05-29T22:59:55.002Z,95447.95
2018-05-29T23:02:20.987Z,95438.84
2018-05-29T23:04:47.023Z,95439.24
2018-05-29T23:07:13.000Z,95433.91
2018-05-29T23:09:38.990Z,95432.53
2018-05-29T23:12:04.972Z,95433.50
2018-05-29T23:14:30.951Z,95428.55
2018-05-29T23:16:56.938Z,95436.27
2018-05-29T23:19:22.922Z,95435.87
2018-05-29T23:21:48.902Z,95433.67
2018-05-29T23:24:14.878Z,95432.29
2018-05-29T23:26:40.862Z,95429.52
2018-05-29T23:29:06.847Z,95432.29
2018-05-29T23:31:32.826Z,95425.38
2018-05-29T23:33:58.817Z,95425.38
2018-05-29T23:36:24.790Z,95417.66
2018-05-29T23:38:50.771Z,95422.20
2018-05-29T23:41:16.760Z,95416.88
2018-05-29T23:43:42.754Z,95413.13
2018-05-29T23:46:08.726Z,95407.97
2018-05-29T23:48:34.709Z,95412.13
2018-05-29T23:51:00.696Z,95411.89
2018-05-29T23:53:26.674Z,95416.47
2018-05-29T23:55:52.664Z,95417.59
2018-05-29T23:58:18.641Z,95421.73
